Tug "trevor" — WCP6921 — position and weather

sailwx.info

Track history (hours):
 
Tides and Currents Weather Stations Pressure Air Temp Water Temp Dewpoint Dewpoint Depression Visibility Wind Speed Wind Dir Waves Ship Positions

Tug "trevor"

Owner: WEEKS MARINE, INC., CRANFORD, NJ. More information available from US FCC via Universal Licensing System and Coast Guard Vessel Documentation Center.

Last reported at 2017-Jun-26 03:27 UTC. Time now 2017-Jun-26 05:12 UTC.
Position N 40°29' W 073°55'.

Length 21 m; draft 3 m.

Type: Towing. MMSI: 366643140.

Date/timePositionNaut miles runAvg speedWind from/ knotsBaromVisibWave heightAir tempDewpointWater temp
2017-Jun-26 03:27N 40°29' W 073°55'1 0.7
2017-Jun-26 02:41N 40°29' W 073°55'1 1.3
2017-Jun-26 02:15N 40°29' W 073°55'0 0.0
2017-Jun-26 01:56N 40°29' W 073°55'0 0.0
2017-Jun-26 01:30N 40°29' W 073°55'0 0.0
2017-Jun-26 01:00N 40°29' W 073°55'0 0.0
2017-Jun-26 00:30N 40°29' W 073°55'0 0.0
2017-Jun-26 00:00N 40°29' W 073°55'0 0.0
2017-Jun-25 23:30N 40°29' W 073°55'0 0.0
2017-Jun-25 23:00N 40°29' W 073°55'0 0.0
2017-Jun-25 22:30N 40°29' W 073°55'0 0.0
2017-Jun-25 22:00N 40°29' W 073°55'0 0.0
2017-Jun-25 21:30N 40°29' W 073°54'0 0.0
2017-Jun-25 21:00N 40°29' W 073°54'0 0.0
2017-Jun-25 20:00N 40°29' W 073°55'0 0.1
2017-Jun-25 19:11N 40°29' W 073°55'0 0.0
2017-Jun-25 14:58N 40°29' W 073°55'0 0.1
2017-Jun-25 14:30N 40°29' W 073°55'3 1.9
2017-Jun-25 12:43N 40°29' W 073°59'1 2.5
2017-Jun-25 12:27N 40°29' W 073°60'1 2.8
2017-Jun-25 12:00N 40°29' W 074°01'1 2.3
2017-Jun-25 11:29N 40°28' W 074°01'0 0.1
2017-Jun-25 09:10N 40°28' W 074°01'0 0.0
2017-Jun-25 01:43N 40°28' W 074°01'0 0.1
2017-Jun-25 01:22N 40°27' W 074°01'0 0.6
2017-Jun-25 01:00N 40°28' W 074°01'0 0.0
2017-Jun-24 15:54N 40°28' W 074°01'0 0.0
2017-Jun-24 15:23N 40°28' W 074°01'0 0.0
2017-Jun-24 14:57N 40°28' W 074°01'0 0.0
2017-Jun-24 13:53N 40°28' W 074°01'0 0.0
2017-Jun-24 13:28N 40°28' W 074°01'0 0.0
2017-Jun-24 12:38N 40°28' W 074°01'0 0.0
2017-Jun-24 12:30N 40°28' W 074°01'0 0.0
2017-Jun-24 12:00N 40°28' W 074°01'0 0.0
2017-Jun-24 11:29N 40°28' W 074°01'0 0.0
2017-Jun-24 11:00N 40°28' W 074°01'0 0.0
2017-Jun-24 10:28N 40°28' W 074°01'0 0.0
2017-Jun-24 06:23N 40°28' W 074°01'0 0.0
2017-Jun-24 05:57N 40°28' W 074°01'0 0.0
2017-Jun-24 05:30N 40°28' W 074°01'0 0.0
2017-Jun-24 05:00N 40°28' W 074°01'0 0.0
2017-Jun-24 04:30N 40°28' W 074°01'0 0.0
2017-Jun-24 04:00N 40°28' W 074°01'0 0.0
2017-Jun-24 03:30N 40°28' W 074°01'0 0.0
2017-Jun-24 02:47N 40°28' W 074°01'0 0.0
2017-Jun-24 02:28N 40°28' W 074°01'0 0.0
2017-Jun-24 01:57N 40°28' W 074°01'0 0.0
2017-Jun-24 01:29N 40°28' W 074°01'0 0.0
2017-Jun-24 00:56N 40°28' W 074°01'0 0.0
2017-Jun-24 00:30N 40°28' W 074°01'0 0.0
2017-Jun-23 23:37N 40°28' W 074°01'0 0.2
2017-Jun-23 23:27N 40°28' W 074°01'0 0.0
2017-Jun-23 23:00N 40°28' W 074°01'0 0.0
2017-Jun-23 22:30N 40°28' W 074°01'0 0.0
2017-Jun-23 22:00N 40°28' W 074°01'0 0.0
2017-Jun-23 21:30N 40°28' W 074°01'0 0.0
2017-Jun-23 19:59N 40°28' W 074°01'1 2.1
2017-Jun-23 19:29N 40°28' W 074°01'5 1.6
2017-Jun-23 16:06N 40°29' W 073°54'0 0.0
2017-Jun-23 15:59N 40°29' W 073°54'0 0.0
2017-Jun-23 12:28N 40°29' W 073°54'0 0.6
2017-Jun-23 11:45N 40°29' W 073°55'0 0.9
2017-Jun-23 11:17N 40°29' W 073°54'0 0.1
2017-Jun-23 11:00N 40°29' W 073°54'0 0.0
2017-Jun-23 10:30N 40°29' W 073°54'3 6.8
2017-Jun-23 10:00N 40°29' W 073°59'2 3.9
2017-Jun-23 09:29N 40°28' W 074°01'5 5.4
2017-Jun-23 08:35N 40°29' W 073°54'0 0.1
2017-Jun-23 08:30N 40°29' W 073°54'0 0.0
2017-Jun-23 01:22N 40°29' W 073°54'0 0.3
2017-Jun-23 00:58N 40°29' W 073°54'4 9.4
2017-Jun-23 00:30N 40°29' W 074°00'2 3.2
2017-Jun-23 00:00N 40°28' W 074°01'5 3.5
2017-Jun-22 22:36N 40°29' W 073°54'0 0.0
2017-Jun-22 22:08N 40°29' W 073°54'0 0.0
2017-Jun-22 21:53N 40°29' W 073°54'0 0.0
2017-Jun-22 21:25N 40°29' W 073°54'0 0.0
2017-Jun-22 20:59N 40°29' W 073°54'0 0.0
2017-Jun-22 20:29N 40°29' W 073°54'0 0.0
2017-Jun-22 19:59N 40°29' W 073°54'0 0.0
2017-Jun-22 19:30N 40°29' W 073°54'1 2.4
2017-Jun-22 19:00N 40°29' W 073°56'1 1.7
2017-Jun-22 18:23N 40°29' W 073°55'0 0.5
2017-Jun-22 18:00N 40°29' W 073°54'0 0.0
2017-Jun-22 12:43N 40°29' W 073°54'0 0.1
2017-Jun-22 12:14N 40°29' W 073°54'1 2.5
2017-Jun-22 12:00N 40°29' W 073°55'2 4.3
2017-Jun-22 11:30N 40°29' W 073°58'2 3.8
2017-Jun-22 11:01N 40°29' W 074°00'2 2.6
2017-Jun-22 10:23N 40°28' W 074°01'0 0.0
2017-Jun-22 10:00N 40°28' W 074°01'0 0.0
2017-Jun-22 09:30N 40°28' W 074°01'0 0.0
2017-Jun-22 08:59N 40°28' W 074°01'0 0.0
2017-Jun-22 08:31N 40°28' W 074°01'0 0.0
2017-Jun-22 07:30N 40°28' W 074°01'0 0.0
2017-Jun-22 03:49N 40°28' W 074°01'0 0.9
2017-Jun-22 03:29N 40°28' W 074°01'2 4.6
2017-Jun-22 03:00N 40°30' W 074°03'3 5.9
2017-Jun-22 02:30N 40°32' W 074°02'3 6.5
2017-Jun-22 02:00N 40°36' W 074°03'4 7.3
2017-Jun-22 01:30N 40°39' W 074°03'1 2.8
2017-Jun-22 01:00N 40°40' W 074°04'0 0.1
2017-Jun-22 00:30N 40°41' W 074°04'0 0.2
2017-Jun-22 00:01N 40°40' W 074°04'0 0.2
2017-Jun-21 23:30N 40°41' W 074°04'0 0.2
2017-Jun-21 23:00N 40°41' W 074°04'0 0.5
2017-Jun-21 22:31N 40°41' W 074°05'0 0.5
2017-Jun-21 22:01N 40°40' W 074°04'0 0.1
2017-Jun-21 21:31N 40°41' W 074°04'0 0.1
2017-Jun-21 21:01N 40°40' W 074°04'0 0.4
2017-Jun-21 20:30N 40°41' W 074°05'1 1.6
2017-Jun-21 20:00N 40°40' W 074°04'5 9.4
2017-Jun-21 19:29N 40°35' W 074°03'8 7.7
2017-Jun-21 18:29N 40°28' W 074°01'0 0.0
2017-Jun-21 18:00N 40°28' W 074°01'0 0.0
2017-Jun-21 17:30N 40°28' W 074°01'0 0.0
2017-Jun-21 17:00N 40°28' W 074°01'0 0.1
2017-Jun-21 16:29N 40°28' W 074°01'0 0.1
2017-Jun-21 16:00N 40°27' W 074°01'0 0.1
2017-Jun-21 15:31N 40°28' W 074°01'0 0.0
2017-Jun-21 15:00N 40°28' W 074°01'0 0.1
2017-Jun-21 13:56N 40°27' W 074°01'0 0.4
2017-Jun-21 13:29N 40°27' W 074°01'2 4.4
2017-Jun-21 12:56N 40°25' W 074°02'2 4.6
2017-Jun-21 12:30N 40°27' W 074°01'3 6.4
2017-Jun-21 12:00N 40°30' W 074°03'1 1.5
2017-Jun-21 11:30N 40°29' W 074°03'0 0.6
2017-Jun-21 11:00N 40°29' W 074°03'3 5.3
2017-Jun-21 10:30N 40°32' W 074°02'3 5.8
2017-Jun-21 10:00N 40°35' W 074°02'3 5.7
2017-Jun-21 09:31N 40°38' W 074°03'3 5.7
2017-Jun-21 09:00N 40°40' W 074°04'0 1.0
2017-Jun-21 08:30N 40°41' W 074°05'0 0.0
2017-Jun-21 08:01N 40°41' W 074°05'0 0.0
2017-Jun-21 07:30N 40°41' W 074°05'0 0.0
2017-Jun-21 07:00N 40°41' W 074°05'0 0.3
2017-Jun-21 06:31N 40°40' W 074°04'2 4.5
2017-Jun-21 06:01N 40°39' W 074°07'0 0.1
2017-Jun-21 05:29N 40°39' W 074°07'0 0.0
2017-Jun-21 05:01N 40°39' W 074°07'0 0.4
2017-Jun-21 04:30N 40°39' W 074°07'3 6.4
2017-Jun-21 04:00N 40°37' W 074°03'3 6.6
2017-Jun-21 03:30N 40°34' W 074°01'39 7.8
2017-Jun-20 22:31N 39°55' W 074°02'1 9.1
2017-Jun-20 22:27N 39°55' W 074°02'4 9.1
2017-Jun-20 21:59N 39°51' W 074°02'4 9.1
2017-Jun-20 21:30N 39°46' W 074°03'4 9.0
2017-Jun-20 21:00N 39°42' W 074°05'5 9.0
2017-Jun-20 20:30N 39°38' W 074°07'4 9.0
2017-Jun-20 20:00N 39°34' W 074°09'16 1.8
2017-Jun-20 11:10N 39°23' W 074°25'0 0.0
2017-Jun-20 10:54N 39°23' W 074°25'0 0.0
2017-Jun-20 10:30N 39°23' W 074°25'0 0.0
2017-Jun-20 10:00N 39°23' W 074°25'0 0.0
2017-Jun-20 08:14N 39°23' W 074°25'0 0.0
2017-Jun-20 07:57N 39°23' W 074°25'  
2017-Jun-17 08:14N 39°23' W 074°25'0 0.0
2017-Jun-17 08:00N 39°23' W 074°25'0 0.0
2017-Jun-17 07:31N 39°23' W 074°25'0 0.0
2017-Jun-17 06:55N 39°23' W 074°25'0 0.0
2017-Jun-17 06:30N 39°23' W 074°25'  
Track history (hours):
 
Tides and Currents Weather Stations Pressure Air Temp Water Temp Dewpoint Dewpoint Depression Visibility Wind Speed Wind Dir Waves Ship Positions

Tug "trevor"

Owner: WEEKS MARINE, INC., CRANFORD, NJ. More information available from US FCC via Universal Licensing System and Coast Guard Vessel Documentation Center.

Last reported at 2017-Jun-26 03:27 UTC. Time now 2017-Jun-26 05:12 UTC.
Position N 40°29' W 073°55'.

Length 21 m; draft 3 m.

Type: Towing. MMSI: 366643140.

Date/timePositionNaut miles runAvg speedWind from/ knotsBaromVisibWave heightAir tempDewpointWater temp
2017-Jun-26 03:27N 40°29' W 073°55'1 0.7
2017-Jun-26 02:41N 40°29' W 073°55'1 1.3
2017-Jun-26 02:15N 40°29' W 073°55'0 0.0
2017-Jun-26 01:56N 40°29' W 073°55'0 0.0
2017-Jun-26 01:30N 40°29' W 073°55'0 0.0
2017-Jun-26 01:00N 40°29' W 073°55'0 0.0
2017-Jun-26 00:30N 40°29' W 073°55'0 0.0
2017-Jun-26 00:00N 40°29' W 073°55'0 0.0
2017-Jun-25 23:30N 40°29' W 073°55'0 0.0
2017-Jun-25 23:00N 40°29' W 073°55'0 0.0
2017-Jun-25 22:30N 40°29' W 073°55'0 0.0
2017-Jun-25 22:00N 40°29' W 073°55'0 0.0
2017-Jun-25 21:30N 40°29' W 073°54'0 0.0
2017-Jun-25 21:00N 40°29' W 073°54'0 0.0
2017-Jun-25 20:00N 40°29' W 073°55'0 0.1
2017-Jun-25 19:11N 40°29' W 073°55'0 0.0
2017-Jun-25 14:58N 40°29' W 073°55'0 0.1
2017-Jun-25 14:30N 40°29' W 073°55'3 1.9
2017-Jun-25 12:43N 40°29' W 073°59'1 2.5
2017-Jun-25 12:27N 40°29' W 073°60'1 2.8
2017-Jun-25 12:00N 40°29' W 074°01'1 2.3
2017-Jun-25 11:29N 40°28' W 074°01'0 0.1
2017-Jun-25 09:10N 40°28' W 074°01'0 0.0
2017-Jun-25 01:43N 40°28' W 074°01'0 0.1
2017-Jun-25 01:22N 40°27' W 074°01'0 0.6
2017-Jun-25 01:00N 40°28' W 074°01'0 0.0
2017-Jun-24 15:54N 40°28' W 074°01'0 0.0
2017-Jun-24 15:23N 40°28' W 074°01'0 0.0
2017-Jun-24 14:57N 40°28' W 074°01'0 0.0
2017-Jun-24 13:53N 40°28' W 074°01'0 0.0
2017-Jun-24 13:28N 40°28' W 074°01'0 0.0
2017-Jun-24 12:38N 40°28' W 074°01'0 0.0
2017-Jun-24 12:30N 40°28' W 074°01'0 0.0
2017-Jun-24 12:00N 40°28' W 074°01'0 0.0
2017-Jun-24 11:29N 40°28' W 074°01'0 0.0
2017-Jun-24 11:00N 40°28' W 074°01'0 0.0
2017-Jun-24 10:28N 40°28' W 074°01'0 0.0
2017-Jun-24 06:23N 40°28' W 074°01'0 0.0
2017-Jun-24 05:57N 40°28' W 074°01'0 0.0
2017-Jun-24 05:30N 40°28' W 074°01'0 0.0
2017-Jun-24 05:00N 40°28' W 074°01'0 0.0
2017-Jun-24 04:30N 40°28' W 074°01'0 0.0
2017-Jun-24 04:00N 40°28' W 074°01'0 0.0
2017-Jun-24 03:30N 40°28' W 074°01'0 0.0
2017-Jun-24 02:47N 40°28' W 074°01'0 0.0
2017-Jun-24 02:28N 40°28' W 074°01'0 0.0
2017-Jun-24 01:57N 40°28' W 074°01'0 0.0
2017-Jun-24 01:29N 40°28' W 074°01'0 0.0
2017-Jun-24 00:56N 40°28' W 074°01'0 0.0
2017-Jun-24 00:30N 40°28' W 074°01'0 0.0
2017-Jun-23 23:37N 40°28' W 074°01'0 0.2
2017-Jun-23 23:27N 40°28' W 074°01'0 0.0
2017-Jun-23 23:00N 40°28' W 074°01'0 0.0
2017-Jun-23 22:30N 40°28' W 074°01'0 0.0
2017-Jun-23 22:00N 40°28' W 074°01'0 0.0
2017-Jun-23 21:30N 40°28' W 074°01'0 0.0
2017-Jun-23 19:59N 40°28' W 074°01'1 2.1
2017-Jun-23 19:29N 40°28' W 074°01'5 1.6
2017-Jun-23 16:06N 40°29' W 073°54'0 0.0
2017-Jun-23 15:59N 40°29' W 073°54'0 0.0
2017-Jun-23 12:28N 40°29' W 073°54'0 0.6
2017-Jun-23 11:45N 40°29' W 073°55'0 0.9
2017-Jun-23 11:17N 40°29' W 073°54'0 0.1
2017-Jun-23 11:00N 40°29' W 073°54'0 0.0
2017-Jun-23 10:30N 40°29' W 073°54'3 6.8
2017-Jun-23 10:00N 40°29' W 073°59'2 3.9
2017-Jun-23 09:29N 40°28' W 074°01'5 5.4
2017-Jun-23 08:35N 40°29' W 073°54'0 0.1
2017-Jun-23 08:30N 40°29' W 073°54'0 0.0
2017-Jun-23 01:22N 40°29' W 073°54'0 0.3
2017-Jun-23 00:58N 40°29' W 073°54'4 9.4
2017-Jun-23 00:30N 40°29' W 074°00'2 3.2
2017-Jun-23 00:00N 40°28' W 074°01'5 3.5
2017-Jun-22 22:36N 40°29' W 073°54'0 0.0
2017-Jun-22 22:08N 40°29' W 073°54'0 0.0
2017-Jun-22 21:53N 40°29' W 073°54'0 0.0
2017-Jun-22 21:25N 40°29' W 073°54'0 0.0
2017-Jun-22 20:59N 40°29' W 073°54'0 0.0
2017-Jun-22 20:29N 40°29' W 073°54'0 0.0
2017-Jun-22 19:59N 40°29' W 073°54'0 0.0
2017-Jun-22 19:30N 40°29' W 073°54'1 2.4
2017-Jun-22 19:00N 40°29' W 073°56'1 1.7
2017-Jun-22 18:23N 40°29' W 073°55'0 0.5
2017-Jun-22 18:00N 40°29' W 073°54'0 0.0
2017-Jun-22 12:43N 40°29' W 073°54'0 0.1
2017-Jun-22 12:14N 40°29' W 073°54'1 2.5
2017-Jun-22 12:00N 40°29' W 073°55'2 4.3
2017-Jun-22 11:30N 40°29' W 073°58'2 3.8
2017-Jun-22 11:01N 40°29' W 074°00'2 2.6
2017-Jun-22 10:23N 40°28' W 074°01'0 0.0
2017-Jun-22 10:00N 40°28' W 074°01'0 0.0
2017-Jun-22 09:30N 40°28' W 074°01'0 0.0
2017-Jun-22 08:59N 40°28' W 074°01'0 0.0
2017-Jun-22 08:31N 40°28' W 074°01'0 0.0
2017-Jun-22 07:30N 40°28' W 074°01'0 0.0
2017-Jun-22 03:49N 40°28' W 074°01'0 0.9
2017-Jun-22 03:29N 40°28' W 074°01'2 4.6
2017-Jun-22 03:00N 40°30' W 074°03'3 5.9
2017-Jun-22 02:30N 40°32' W 074°02'3 6.5
2017-Jun-22 02:00N 40°36' W 074°03'4 7.3
2017-Jun-22 01:30N 40°39' W 074°03'1 2.8
2017-Jun-22 01:00N 40°40' W 074°04'0 0.1
2017-Jun-22 00:30N 40°41' W 074°04'0 0.2
2017-Jun-22 00:01N 40°40' W 074°04'0 0.2
2017-Jun-21 23:30N 40°41' W 074°04'0 0.2
2017-Jun-21 23:00N 40°41' W 074°04'0 0.5
2017-Jun-21 22:31N 40°41' W 074°05'0 0.5
2017-Jun-21 22:01N 40°40' W 074°04'0 0.1
2017-Jun-21 21:31N 40°41' W 074°04'0 0.1
2017-Jun-21 21:01N 40°40' W 074°04'0 0.4
2017-Jun-21 20:30N 40°41' W 074°05'1 1.6
2017-Jun-21 20:00N 40°40' W 074°04'5 9.4
2017-Jun-21 19:29N 40°35' W 074°03'8 7.7
2017-Jun-21 18:29N 40°28' W 074°01'0 0.0
2017-Jun-21 18:00N 40°28' W 074°01'0 0.0
2017-Jun-21 17:30N 40°28' W 074°01'0 0.0
2017-Jun-21 17:00N 40°28' W 074°01'0 0.1
2017-Jun-21 16:29N 40°28' W 074°01'0 0.1
2017-Jun-21 16:00N 40°27' W 074°01'0 0.1
2017-Jun-21 15:31N 40°28' W 074°01'0 0.0
2017-Jun-21 15:00N 40°28' W 074°01'0 0.1
2017-Jun-21 13:56N 40°27' W 074°01'0 0.4
2017-Jun-21 13:29N 40°27' W 074°01'2 4.4
2017-Jun-21 12:56N 40°25' W 074°02'2 4.6
2017-Jun-21 12:30N 40°27' W 074°01'3 6.4
2017-Jun-21 12:00N 40°30' W 074°03'1 1.5
2017-Jun-21 11:30N 40°29' W 074°03'0 0.6
2017-Jun-21 11:00N 40°29' W 074°03'3 5.3
2017-Jun-21 10:30N 40°32' W 074°02'3 5.8
2017-Jun-21 10:00N 40°35' W 074°02'3 5.7
2017-Jun-21 09:31N 40°38' W 074°03'3 5.7
2017-Jun-21 09:00N 40°40' W 074°04'0 1.0
2017-Jun-21 08:30N 40°41' W 074°05'0 0.0
2017-Jun-21 08:01N 40°41' W 074°05'0 0.0
2017-Jun-21 07:30N 40°41' W 074°05'0 0.0
2017-Jun-21 07:00N 40°41' W 074°05'0 0.3
2017-Jun-21 06:31N 40°40' W 074°04'2 4.5
2017-Jun-21 06:01N 40°39' W 074°07'0 0.1
2017-Jun-21 05:29N 40°39' W 074°07'0 0.0
2017-Jun-21 05:01N 40°39' W 074°07'0 0.4
2017-Jun-21 04:30N 40°39' W 074°07'3 6.4
2017-Jun-21 04:00N 40°37' W 074°03'3 6.6
2017-Jun-21 03:30N 40°34' W 074°01'39 7.8
2017-Jun-20 22:31N 39°55' W 074°02'1 9.1
2017-Jun-20 22:27N 39°55' W 074°02'4 9.1
2017-Jun-20 21:59N 39°51' W 074°02'4 9.1
2017-Jun-20 21:30N 39°46' W 074°03'4 9.0
2017-Jun-20 21:00N 39°42' W 074°05'5 9.0
2017-Jun-20 20:30N 39°38' W 074°07'4 9.0
2017-Jun-20 20:00N 39°34' W 074°09'16 1.8
2017-Jun-20 11:10N 39°23' W 074°25'0 0.0
2017-Jun-20 10:54N 39°23' W 074°25'0 0.0
2017-Jun-20 10:30N 39°23' W 074°25'0 0.0
2017-Jun-20 10:00N 39°23' W 074°25'0 0.0
2017-Jun-20 08:14N 39°23' W 074°25'0 0.0
2017-Jun-20 07:57N 39°23' W 074°25'  
2017-Jun-17 08:14N 39°23' W 074°25'0 0.0
2017-Jun-17 08:00N 39°23' W 074°25'0 0.0
2017-Jun-17 07:31N 39°23' W 074°25'0 0.0
2017-Jun-17 06:55N 39°23' W 074°25'0 0.0
2017-Jun-17 06:30N 39°23' W 074°25'  

Dump ship's entire track history